Time;durP1;ratioP1;P1;durP2;ratioP2;P2;SDS_P1;SDS_P2;PMS_P1;PMS_P2;Temp;Humidity;BMP_temperature;BMP_pressure;BME280_temperature;BME280_humidity;BME280_pressure;Samples;Min_cycle;Max_cycle;Signal;HPM_P1;HPM_P2
2022/05/26 00:01:36;;;;;;;4.00;3.60;;;;;;;11.52;87.64;100390.53;84791;1322;25555;-73
2022/05/26 00:03:45;;;;;;;3.60;3.30;;;;;;;11.42;87.11;100392.31;84775;1330;23974;-73
2022/05/26 00:05:52;;;;;;;4.90;3.90;;;;;;;11.32;87.24;100385.89;84807;1325;22585;-73
2022/05/26 00:08:00;;;;;;;3.40;3.10;;;;;;;11.25;87.47;100385.16;84813;1318;22692;-72
2022/05/26 00:10:09;;;;;;;4.40;4.00;;;;;;;11.19;87.74;100384.86;84821;1325;22689;-72
2022/05/26 00:12:19;;;;;;;3.20;3.00;;;;;;;11.15;87.84;100387.66;84810;1327;22688;-74
2022/05/26 00:14:26;;;;;;;6.00;3.30;;;;;;;11.12;87.92;100392.67;84782;1329;24205;-73
2022/05/26 00:16:34;;;;;;;4.40;3.00;;;;;;;11.06;87.51;100387.49;84659;1327;22619;-71
2022/05/26 00:18:43;;;;;;;3.80;3.40;;;;;;;11.02;87.94;100388.68;84821;1328;22597;-72
2022/05/26 00:20:50;;;;;;;3.50;3.20;;;;;;;11.02;87.97;100391.83;84792;1329;22580;-73
2022/05/26 00:22:58;;;;;;;4.00;3.50;;;;;;;10.98;87.87;100390.95;84823;1327;22592;-73
2022/05/26 00:25:06;;;;;;;3.30;3.00;;;;;;;10.94;87.77;100389.39;84844;1326;22588;-73
2022/05/26 00:27:14;;;;;;;3.10;2.80;;;;;;;10.87;87.72;100394.34;84807;1327;22709;-73
2022/05/26 00:29:21;;;;;;;3.60;3.30;;;;;;;10.81;87.94;100395.45;84804;1329;22683;-73
2022/05/26 00:31:28;;;;;;;3.50;3.30;;;;;;;10.75;87.83;100398.29;84825;1325;22695;-73
2022/05/26 00:33:36;;;;;;;2.90;2.70;;;;;;;10.71;87.97;100398.45;84827;1329;22629;-72
2022/05/26 00:35:43;;;;;;;3.00;2.70;;;;;;;10.67;88.14;100394.24;84805;1328;22608;-74
2022/05/26 00:37:51;;;;;;;3.50;3.00;;;;;;;10.63;88.12;100395.10;84749;1327;22634;-72
2022/05/26 00:40:01;;;;;;;3.40;3.00;;;;;;;10.58;87.97;100402.42;84796;1328;22672;-72
2022/05/26 00:42:10;;;;;;;3.90;3.60;;;;;;;10.52;88.14;100397.95;84803;1323;24251;-73
2022/05/26 00:44:18;;;;;;;4.80;3.50;;;;;;;10.49;88.20;100395.95;84805;1326;24113;-73
2022/05/26 00:46:33;;;;;;;5.30;3.40;;;;;;;10.45;88.30;100395.44;84795;1329;22667;-73
2022/05/26 00:48:46;;;;;;;4.00;3.20;;;;;;;10.38;88.15;100396.20;84816;1325;22613;-73
2022/05/26 00:50:56;;;;;;;4.30;3.90;;;;;;;10.32;88.20;100393.97;84780;1328;22603;-72
2022/05/26 00:53:03;;;;;;;;;;;;;;;10.28;88.21;100397.80;84834;1324;26825;-72
2022/05/26 00:55:13;;;;;;;3.40;3.10;;;;;;;10.19;88.16;100396.34;84827;1325;22699;-73
2022/05/26 00:57:24;;;;;;;3.90;3.50;;;;;;;10.14;88.40;100399.14;84816;1322;22713;-72
2022/05/26 00:59:38;;;;;;;3.80;3.40;;;;;;;10.14;88.85;100403.48;84863;1323;25594;-73
2022/05/26 01:01:46;;;;;;;4.90;3.20;;;;;;;10.14;88.93;100401.92;84877;1320;22811;-72
2022/05/26 01:03:56;;;;;;;3.90;3.40;;;;;;;10.13;88.95;100404.57;84866;1328;22616;-72
2022/05/26 01:06:07;;;;;;;6.30;3.90;;;;;;;10.12;88.90;100409.48;84850;1322;22673;-73
2022/05/26 01:08:18;;;;;;;4.90;3.90;;;;;;;10.11;89.00;100404.81;84853;1328;22631;-73
2022/05/26 01:10:26;;;;;;;4.60;4.20;;;;;;;10.10;89.13;100401.90;84870;1324;25298;-73
2022/05/26 01:12:33;;;;;;;5.40;4.80;;;;;;;10.09;89.25;100401.02;84821;1327;26668;-73
2022/05/26 01:14:43;;;;;;;4.00;3.60;;;;;;;10.06;89.15;100400.46;84821;1329;22786;-72
2022/05/26 01:16:59;;;;;;;3.90;3.60;;;;;;;10.01;88.97;100398.89;84830;1326;26681;-73
2022/05/26 01:19:24;;;;;;;7.20;4.10;;;;;;;9.98;89.00;100398.13;84853;1324;22603;-73
2022/05/26 01:21:33;;;;;;;7.60;3.70;;;;;;;9.96;89.12;100395.58;84845;1326;25363;-72
2022/05/26 01:24:10;;;;;;;4.20;3.80;;;;;;;9.96;89.14;100397.86;84829;1328;22818;-73
2022/05/26 01:27:00;;;;;;;5.00;4.50;;;;;;;9.95;89.46;100393.69;84857;1324;26724;-73
2022/05/26 01:29:53;;;;;;;4.20;3.90;;;;;;;9.97;89.59;100394.67;84819;1326;22587;-72
2022/05/26 01:32:04;;;;;;;4.10;3.70;;;;;;;9.96;89.50;100398.55;84836;1328;22609;-73
2022/05/26 01:34:19;;;;;;;4.90;4.40;;;;;;;9.95;89.51;100403.98;84837;1328;26748;-73
2022/05/26 01:36:35;;;;;;;4.70;4.30;;;;;;;9.92;89.52;100399.55;84829;1324;25518;-73
2022/05/26 01:38:53;;;;;;;4.80;4.40;;;;;;;9.90;89.43;100401.19;84860;1326;22593;-72
2022/05/26 01:41:07;;;;;;;4.40;4.10;;;;;;;9.88;89.54;100405.09;84848;1327;22589;-73
2022/05/26 01:43:20;;;;;;;5.10;4.70;;;;;;;9.87;89.53;100404.95;84837;1324;22984;-73
2022/05/26 01:45:35;;;;;;;4.30;4.00;;;;;;;9.85;89.66;100405.19;84870;1328;22610;-73
2022/05/26 01:47:47;;;;;;;4.80;4.00;;;;;;;9.86;89.76;100405.71;84827;1320;22568;-73
2022/05/26 01:50:00;;;;;;;3.70;3.40;;;;;;;9.85;89.77;100406.23;84867;1328;22598;-72
2022/05/26 01:52:12;;;;;;;4.80;3.80;;;;;;;9.84;89.68;100401.94;84840;1324;24836;-73
2022/05/26 01:54:24;;;;;;;5.20;4.70;;;;;;;9.82;89.75;100402.16;84870;1324;22651;-73
2022/05/26 01:56:34;;;;;;;4.50;4.10;;;;;;;9.82;89.76;100402.00;84848;1326;22656;-72
2022/05/26 01:58:44;;;;;;;4.20;3.90;;;;;;;9.81;89.89;100398.19;84814;1323;22610;-72
2022/05/26 02:00:53;;;;;;;4.50;4.20;;;;;;;9.80;90.05;100399.61;84799;1324;24799;-73
2022/05/26 02:03:05;;;;;;;4.70;4.30;;;;;;;9.79;90.26;100398.95;84819;1323;22574;-73
2022/05/26 02:05:15;;;;;;;5.50;3.50;;;;;;;9.79;90.08;100397.38;84831;1329;22633;-73
2022/05/26 02:07:26;;;;;;;4.00;3.70;;;;;;;9.78;90.11;100397.77;84792;1321;22689;-73
2022/05/26 02:09:41;;;;;;;3.60;3.30;;;;;;;9.79;90.37;100398.59;84799;1326;22598;-72
2022/05/26 02:11:57;;;;;;;3.90;3.50;;;;;;;9.80;90.23;100400.67;84773;1326;24508;-72
2022/05/26 02:14:10;;;;;;;4.10;3.80;;;;;;;9.76;89.81;100401.30;84798;1327;22613;-71
2022/05/26 02:16:21;;;;;;;4.50;4.20;;;;;;;9.73;89.92;100401.76;84798;1327;22665;-73
2022/05/26 02:18:30;;;;;;;4.80;4.30;;;;;;;9.70;89.86;100396.33;84826;1327;22586;-74
2022/05/26 02:20:40;;;;;;;7.60;4.40;;;;;;;9.67;90.17;100399.73;84814;1329;22589;-72
2022/05/26 02:22:51;;;;;;;4.50;4.10;;;;;;;9.67;90.18;100401.80;84832;1329;24128;-73
2022/05/26 02:25:01;;;;;;;4.80;4.40;;;;;;;9.65;90.20;100404.64;84795;1325;22582;-71
2022/05/26 02:27:09;;;;;;;4.70;4.10;;;;;;;9.64;90.34;100403.82;84811;1327;22599;-73
2022/05/26 02:31:41;;;;;;;4.30;3.90;;;;;;;9.63;90.43;100407.33;84800;1327;22636;-73
2022/05/26 02:33:49;;;;;;;4.30;3.90;;;;;;;9.62;90.29;100409.30;84827;1326;24036;-73
2022/05/26 02:35:56;;;;;;;4.60;4.20;;;;;;;9.62;90.32;100401.47;84814;1320;22590;-72
2022/05/26 02:38:07;;;;;;;5.20;4.70;;;;;;;9.62;90.44;100401.13;84797;1326;22610;-72
2022/05/26 02:40:16;;;;;;;3.90;3.60;;;;;;;9.62;90.49;100403.54;84827;1325;24226;-73
2022/05/26 02:42:24;;;;;;;4.30;3.90;;;;;;;9.64;90.46;100402.79;84821;1327;22616;-72
2022/05/26 02:44:33;;;;;;;4.30;3.90;;;;;;;9.65;90.53;100404.66;84800;1325;22631;-72
2022/05/26 02:46:55;;;;;;;6.60;4.70;;;;;;;9.65;90.56;100411.98;84839;1328;26748;-72
2022/05/26 02:49:11;;;;;;;5.20;4.30;;;;;;;9.64;90.51;100407.83;84805;1326;22584;-72
2022/05/26 02:51:23;;;;;;;4.80;4.30;;;;;;;9.63;90.56;100407.17;84822;1327;24251;-73
2022/05/26 02:53:40;;;;;;;4.60;4.20;;;;;;;9.61;90.22;100407.76;84825;1322;22831;-73
2022/05/26 02:55:56;;;;;;;4.20;3.90;;;;;;;9.61;90.55;100405.50;84818;1329;25307;-73
2022/05/26 02:58:14;;;;;;;8.50;4.00;;;;;;;9.60;90.37;100407.43;84822;1326;22598;-72
2022/05/26 03:00:25;;;;;;;5.60;4.30;;;;;;;9.58;90.30;100409.42;84802;1329;22615;-73
2022/05/26 03:02:39;;;;;;;3.90;3.60;;;;;;;9.59;90.49;100408.51;84821;1325;25311;-73
2022/05/26 03:04:49;;;;;;;4.20;3.80;;;;;;;9.61;90.47;100404.65;84855;1325;22627;-72
2022/05/26 03:06:56;;;;;;;;;;;;;;;9.63;90.67;100402.10;84812;1327;22834;-72
2022/05/26 03:09:04;;;;;;;5.50;5.10;;;;;;;9.64;90.77;100400.15;84826;1327;22622;-73
2022/05/26 03:11:14;;;;;;;6.30;5.70;;;;;;;9.68;90.84;100399.52;84808;1327;22566;-72
2022/05/26 03:13:23;;;;;;;6.00;5.50;;;;;;;9.69;90.86;100403.28;84797;1327;25330;-73
2022/05/26 03:15:32;;;;;;;7.70;5.60;;;;;;;9.72;90.99;100401.46;84813;1326;22590;-72
2022/05/26 03:17:39;;;;;;;6.60;5.10;;;;;;;9.74;90.94;100407.64;84810;1325;22579;-72
2022/05/26 03:19:46;;;;;;;5.10;4.60;;;;;;;9.76;90.86;100403.59;84805;1327;22607;-73
2022/05/26 03:21:54;;;;;;;5.80;5.20;;;;;;;9.79;90.86;100402.26;84830;1327;25296;-72
2022/05/26 03:24:01;;;;;;;3.60;3.30;;;;;;;9.81;90.78;100403.23;84819;1326;25549;-73
2022/05/26 03:26:10;;;;;;;3.80;3.40;;;;;;;9.86;90.90;100399.08;84811;1322;22648;-72
2022/05/26 03:28:17;;;;;;;4.40;4.00;;;;;;;9.92;91.20;100403.90;84797;1326;22852;-70
2022/05/26 03:30:25;;;;;;;4.20;3.80;;;;;;;10.00;91.38;100407.27;84821;1321;22601;-71
2022/05/26 03:32:32;;;;;;;5.00;3.90;;;;;;;10.06;91.07;100406.92;84820;1325;22826;-73
2022/05/26 03:41:56;;;;;;;3.40;3.10;;;;;;;11.35;93.70;100399.92;84824;1322;22793;-73
2022/05/26 03:44:03;;;;;;;3.90;3.60;;;;;;;12.39;96.45;100396.34;84813;1327;22597;-73
2022/05/26 03:46:11;;;;;;;6.30;3.10;;;;;;;13.38;95.52;100396.45;84829;1322;22638;-73
2022/05/26 03:48:18;;;;;;;4.50;2.50;;;;;;;14.24;93.01;100395.80;84823;1329;25428;-72
2022/05/26 03:50:25;;;;;;;2.90;2.70;;;;;;;14.99;90.45;100399.45;84814;1325;22611;-74
2022/05/26 03:52:33;;;;;;;3.40;3.10;;;;;;;15.64;87.03;100401.88;84810;1322;22612;-74
2022/05/26 03:54:40;;;;;;;3.90;2.90;;;;;;;16.29;84.77;100400.66;84798;1329;22596;-73
2022/05/26 03:56:48;;;;;;;3.10;2.70;;;;;;;16.88;82.21;100398.89;84808;1325;26275;-73
2022/05/26 03:58:55;;;;;;;2.80;2.60;;;;;;;17.44;78.71;100401.27;84791;1327;24257;-73
2022/05/26 04:01:06;;;;;;;3.90;3.60;;;;;;;17.89;76.18;100395.48;84806;1323;24482;-73
2022/05/26 04:03:14;;;;;;;3.50;3.20;;;;;;;18.41;73.82;100393.44;84831;1318;23033;-73
2022/05/26 04:05:21;;;;;;;3.80;3.10;;;;;;;18.87;72.23;100394.84;84827;1326;24099;-72
2022/05/26 04:07:29;;;;;;;3.40;3.20;;;;;;;19.26;69.45;100393.55;84803;1323;25572;-71
2022/05/26 04:09:36;;;;;;;3.50;3.20;;;;;;;19.64;67.49;100389.14;84808;1329;22728;-72
2022/05/26 04:11:44;;;;;;;3.60;3.30;;;;;;;20.01;66.20;100390.93;84699;1326;172558;-73
2022/05/26 04:13:52;;;;;;;4.30;3.80;;;;;;;20.38;64.87;100394.79;84825;1327;22581;-73
2022/05/26 04:15:59;;;;;;;4.40;4.00;;;;;;;20.61;63.05;100394.60;84833;1325;22640;-72
2022/05/26 04:18:07;;;;;;;5.50;3.80;;;;;;;20.54;62.18;100392.48;84839;1326;22591;-73
2022/05/26 04:20:18;;;;;;;4.40;4.00;;;;;;;20.26;61.80;100394.98;84832;1327;24226;-73
2022/05/26 04:22:25;;;;;;;4.80;3.80;;;;;;;19.86;61.45;100393.85;84823;1326;22704;-73
2022/05/26 04:24:33;;;;;;;4.30;3.90;;;;;;;19.49;61.46;100403.34;84818;1329;22580;-73
2022/05/26 04:26:40;;;;;;;5.00;4.10;;;;;;;19.29;61.38;100401.98;84800;1328;22575;-73
2022/05/26 04:28:48;;;;;;;6.50;4.40;;;;;;;18.99;62.30;100401.91;84807;1325;22591;-73
2022/05/26 04:30:55;;;;;;;5.00;4.60;;;;;;;18.59;63.01;100396.45;84808;1325;22590;-72
2022/05/26 04:33:03;;;;;;;6.80;4.60;;;;;;;18.21;63.36;100394.34;84818;1328;23930;-72
2022/05/26 04:35:14;;;;;;;8.10;5.30;;;;;;;17.92;63.92;100396.84;84823;1318;24212;-72
2022/05/26 04:37:27;;;;;;;6.00;5.40;;;;;;;17.78;64.60;100398.48;84818;1328;23882;-72
2022/05/26 04:39:35;;;;;;;5.30;4.90;;;;;;;17.87;65.04;100393.67;84792;1327;25368;-72
2022/05/26 04:42:00;;;;;;;6.20;5.60;;;;;;;18.13;65.30;100394.54;84815;1327;22644;-72
2022/05/26 04:44:14;;;;;;;7.90;5.70;;;;;;;18.32;64.79;100389.12;84820;1328;22596;-74
2022/05/26 04:46:21;;;;;;;6.00;5.40;;;;;;;18.53;64.75;100386.09;84825;1329;22573;-73
2022/05/26 04:48:29;;;;;;;6.50;5.80;;;;;;;18.84;64.53;100389.02;84811;1328;22752;-73
2022/05/26 04:50:37;;;;;;;6.10;5.40;;;;;;;19.43;64.70;100387.14;84823;1328;22595;-72
2022/05/26 04:52:44;;;;;;;6.40;5.90;;;;;;;20.13;63.79;100381.48;84844;1325;22588;-74
2022/05/26 04:54:53;;;;;;;7.10;6.10;;;;;;;20.84;62.36;100384.08;84812;1327;22581;-74
2022/05/26 04:57:01;;;;;;;7.50;6.00;;;;;;;21.43;60.96;100380.15;84801;1329;22614;-73
2022/05/26 04:59:09;;;;;;;6.20;5.40;;;;;;;21.92;58.48;100380.27;84812;1323;25414;-73
2022/05/26 05:01:17;;;;;;;8.50;6.60;;;;;;;22.26;57.46;100382.84;84809;1328;22593;-74
2022/05/26 05:03:25;;;;;;;6.50;5.90;;;;;;;22.75;56.84;100383.56;84811;1321;22609;-73
2022/05/26 05:05:34;;;;;;;6.90;6.30;;;;;;;23.32;55.84;100381.83;84809;1325;22661;-73
2022/05/26 05:07:41;;;;;;;6.00;5.50;;;;;;;23.89;53.94;100379.96;84785;1327;22721;-73
2022/05/26 05:09:49;;;;;;;6.50;5.80;;;;;;;24.43;52.02;100379.30;84817;1325;22688;-73
2022/05/26 05:11:56;;;;;;;6.70;6.00;;;;;;;24.89;50.81;100383.21;84816;1326;22666;-72
2022/05/26 05:14:05;;;;;;;6.70;6.20;;;;;;;25.24;49.79;100380.30;84825;1327;22721;-73
2022/05/26 05:16:14;;;;;;;7.10;6.50;;;;;;;25.60;49.26;100383.77;84771;1327;24106;-73
2022/05/26 05:18:20;;;;;;;;;;;;;;;26.02;47.73;100386.66;84794;1326;22689;-73
2022/05/26 05:20:28;;;;;;;7.10;6.40;;;;;;;26.23;47.12;100392.36;84798;1327;22578;-73
2022/05/26 05:22:37;;;;;;;8.90;6.20;;;;;;;26.46;46.24;100393.04;84830;1327;22612;-73
2022/05/26 05:24:48;;;;;;;7.10;6.50;;;;;;;26.67;45.54;100391.77;84833;1328;22634;-73
2022/05/26 05:26:57;;;;;;;7.10;6.10;;;;;;;27.02;45.08;100396.61;84835;1323;22586;-73
2022/05/26 05:29:11;;;;;;;7.00;6.40;;;;;;;27.24;44.13;100397.48;84782;1329;22608;-73
2022/05/26 05:31:21;;;;;;;7.00;6.40;;;;;;;27.40;44.49;100396.53;84801;1327;25333;-73
2022/05/26 05:33:31;;;;;;;6.70;6.10;;;;;;;27.59;43.85;100394.45;84801;1325;22625;-73
2022/05/26 05:35:42;;;;;;;7.60;7.00;;;;;;;27.84;42.84;100394.89;84821;1325;22665;-74
2022/05/26 05:37:49;;;;;;;6.60;6.10;;;;;;;28.14;42.02;100391.24;84826;1325;22625;-74
2022/05/26 05:39:57;;;;;;;6.50;5.90;;;;;;;28.28;41.46;100389.79;84810;1327;22584;-73
2022/05/26 05:42:06;;;;;;;7.40;5.80;;;;;;;28.51;41.21;100390.71;84831;1329;22651;-73
2022/05/26 05:44:13;;;;;;;6.60;6.10;;;;;;;28.76;41.03;100386.50;84852;1327;22584;-73
2022/05/26 05:46:21;;;;;;;5.90;5.40;;;;;;;29.15;41.19;100384.97;84809;1326;22583;-73
2022/05/26 05:48:28;;;;;;;9.30;6.40;;;;;;;29.27;39.41;100375.01;84838;1322;22595;-74
2022/05/26 05:50:35;;;;;;;6.20;5.60;;;;;;;29.05;39.05;100379.10;84810;1327;22645;-74
2022/05/26 05:52:43;;;;;;;6.10;5.60;;;;;;;28.54;39.00;100383.00;84817;1327;24087;-74
2022/05/26 05:54:50;;;;;;;6.40;5.60;;;;;;;28.01;39.68;100392.45;84819;1329;24286;-74
2022/05/26 05:56:58;;;;;;;6.00;5.50;;;;;;;28.06;39.93;100394.05;84848;1321;22676;-73
2022/05/26 05:59:05;;;;;;;7.30;6.20;;;;;;;28.10;40.05;100399.72;84819;1327;22686;-73
2022/05/26 06:01:12;;;;;;;6.20;5.30;;;;;;;28.26;40.05;100395.62;84818;1325;22588;-73
2022/05/26 06:03:38;;;;;;;6.50;5.90;;;;;;;28.53;39.77;100389.55;84789;1325;22626;-74
2022/05/26 06:05:46;;;;;;;6.10;5.50;;;;;;;29.13;39.57;100389.99;84792;1329;25443;-74
2022/05/26 06:07:53;;;;;;;6.70;6.10;;;;;;;29.67;38.05;100384.40;84807;1321;22586;-75
2022/05/26 06:10:01;;;;;;;5.60;4.60;;;;;;;30.10;37.21;100384.67;84828;1327;22659;-75
2022/05/26 06:12:11;;;;;;;6.50;5.30;;;;;;;29.98;36.34;100388.14;84828;1325;22664;-74
2022/05/26 06:14:19;;;;;;;5.40;5.00;;;;;;;29.49;36.45;100384.98;84852;1328;22602;-75
2022/05/26 06:16:27;;;;;;;4.90;4.40;;;;;;;29.03;37.28;100390.94;84819;1322;24382;-75
2022/05/26 06:18:36;;;;;;;5.00;4.60;;;;;;;29.21;37.78;100391.03;84842;1322;22584;-74
2022/05/26 06:20:43;;;;;;;7.70;4.30;;;;;;;29.48;37.10;100389.15;84830;1326;22648;-75
2022/05/26 06:22:54;;;;;;;5.50;4.20;;;;;;;29.71;36.52;100389.28;84784;1325;22590;-75
2022/05/26 06:25:05;;;;;;;5.50;5.10;;;;;;;29.93;37.02;100385.27;84829;1324;22560;-74
2022/05/26 06:29:52;;;;;;;5.00;4.60;;;;;;;30.97;35.69;100388.85;84822;1329;22596;-74
2022/05/26 06:39:18;;;;;;;7.50;5.60;;;;;;;32.18;33.02;100372.04;84816;1325;22686;-74
2022/05/26 06:43:51;;;;;;;5.00;4.20;;;;;;;32.41;32.27;100367.44;84813;1322;22687;-74
2022/05/26 06:45:58;;;;;;;8.40;3.70;;;;;;;32.67;31.12;100363.25;84818;1323;24429;-74
2022/05/26 06:48:07;;;;;;;4.00;3.60;;;;;;;32.79;31.47;100366.22;84810;1323;22909;-74
2022/05/26 06:50:15;;;;;;;5.20;3.70;;;;;;;33.02;31.00;100365.32;84820;1325;22564;-74
2022/05/26 06:52:27;;;;;;;5.10;3.30;;;;;;;33.03;30.07;100363.45;84801;1325;23080;-74
2022/05/26 06:54:37;;;;;;;4.40;3.60;;;;;;;33.17;30.18;100360.42;84817;1325;25576;-74
2022/05/26 06:56:47;;;;;;;5.30;3.10;;;;;;;33.36;29.42;100351.52;84822;1328;22569;-74
2022/05/26 06:58:55;;;;;;;4.10;3.50;;;;;;;33.40;29.56;100351.88;84800;1321;22599;-74
2022/05/26 07:01:03;;;;;;;4.20;3.50;;;;;;;33.16;29.52;100352.02;84827;1329;24117;-74
2022/05/26 07:03:10;;;;;;;5.60;3.60;;;;;;;33.07;29.42;100348.02;84815;1323;23048;-74
2022/05/26 07:05:20;;;;;;;3.50;3.20;;;;;;;33.19;30.08;100347.08;84813;1326;26439;-74
2022/05/26 07:07:28;;;;;;;3.70;3.40;;;;;;;33.47;29.18;100347.14;84805;1326;22590;-74
2022/05/26 07:09:35;;;;;;;4.30;3.70;;;;;;;33.66;29.36;100345.38;84795;1321;22586;-74
2022/05/26 07:11:43;;;;;;;3.40;3.10;;;;;;;33.90;28.83;100344.60;84834;1325;22696;-74
2022/05/26 07:13:50;;;;;;;4.10;3.70;;;;;;;33.95;28.48;100341.39;84809;1327;22661;-74
2022/05/26 07:15:58;;;;;;;4.20;3.70;;;;;;;34.00;28.30;100344.05;84814;1325;22697;-74
2022/05/26 07:18:08;;;;;;;3.90;2.90;;;;;;;34.24;27.43;100341.13;84818;1326;24121;-74
2022/05/26 07:20:18;;;;;;;3.30;3.00;;;;;;;34.38;27.43;100341.61;84792;1329;22843;-76
2022/05/26 07:22:27;;;;;;;3.80;3.50;;;;;;;34.57;27.59;100340.06;84815;1321;24273;-75
2022/05/26 07:24:38;;;;;;;4.20;3.00;;;;;;;34.62;27.74;100340.71;84810;1325;26619;-75
2022/05/26 07:26:47;;;;;;;3.20;2.90;;;;;;;34.65;27.57;100343.70;84810;1326;22698;-74
2022/05/26 07:30:02;;;;;;;;;;;;;;;;;;;;;
2022/05/26 07:33:00;;;;;;;;;;;;;;;34.99;26.98;100342.38;84791;1327;25297;-75
2022/05/26 07:35:11;;;;;;;2.80;2.60;;;;;;;35.08;26.70;100346.83;84764;1328;22590;-76
2022/05/26 07:42:28;;;;;;;3.20;2.90;;;;;;;35.49;26.43;100345.14;84566;1334;22608;-73
2022/05/26 07:44:39;;;;;;;3.30;3.00;;;;;;;35.62;25.94;100341.63;84568;1330;22688;-75
2022/05/26 07:47:27;;;;;;;3.80;3.00;;;;;;;35.74;25.86;100338.25;84574;1330;22644;-74
2022/05/26 07:50:01;;;;;;;4.60;2.60;;;;;;;35.82;25.13;100336.63;84796;1329;22569;-75
2022/05/26 07:52:14;;;;;;;6.00;2.60;;;;;;;35.95;25.11;100335.76;84807;1326;23885;-75
2022/05/26 07:54:22;;;;;;;2.50;2.30;;;;;;;35.92;25.74;100337.86;84801;1322;22581;-75
2022/05/26 07:56:32;;;;;;;3.70;2.50;;;;;;;36.10;25.57;100332.05;84800;1327;25946;-75
2022/05/26 07:58:40;;;;;;;4.00;2.60;;;;;;;36.27;25.06;100332.06;84814;1327;22598;-73
2022/05/26 08:00:48;;;;;;;3.50;2.00;;;;;;;36.31;25.02;100333.10;84824;1328;22743;-74
2022/05/26 08:02:57;;;;;;;3.50;1.90;;;;;;;36.25;25.11;100332.16;84809;1327;22595;-74
2022/05/26 08:05:05;;;;;;;1.50;1.40;;;;;;;36.43;24.54;100334.95;84823;1325;22595;-74
2022/05/26 08:07:12;;;;;;;5.50;1.80;;;;;;;36.43;24.16;100330.79;84815;1321;22834;-73
2022/05/26 08:09:23;;;;;;;2.50;1.50;;;;;;;36.43;24.45;100331.77;84802;1328;22634;-73
2022/05/26 08:11:31;;;;;;;1.80;1.70;;;;;;;36.49;24.60;100329.95;84800;1323;22645;-72
2022/05/26 08:13:39;;;;;;;3.80;1.70;;;;;;;36.67;23.77;100321.71;84819;1327;22618;-72
2022/05/26 08:16:03;;;;;;;;;;;;;;;36.83;23.63;100323.84;84820;1322;22589;-72
2022/05/26 08:18:11;;;;;;;4.50;2.10;;;;;;;36.71;23.30;100322.00;84809;1329;22603;-72
2022/05/26 08:20:19;;;;;;;1.80;1.60;;;;;;;36.73;23.22;100323.61;84785;1327;22592;-73
2022/05/26 08:22:26;;;;;;;2.40;2.10;;;;;;;36.64;22.48;100323.27;84825;1329;22584;-74
2022/05/26 08:24:34;;;;;;;1.70;1.30;;;;;;;36.25;23.39;100322.66;84802;1327;22737;-74
2022/05/26 08:26:46;;;;;;;1.70;1.50;;;;;;;36.06;22.88;100315.86;84828;1329;23979;-73
2022/05/26 08:28:53;;;;;;;1.40;1.10;;;;;;;36.20;22.90;100320.57;84821;1329;22714;-73
2022/05/26 08:31:04;;;;;;;1.60;1.30;;;;;;;36.45;22.69;100321.76;84806;1325;22683;-73
2022/05/26 08:33:12;;;;;;;3.20;1.50;;;;;;;36.52;22.11;100326.69;84790;1327;22671;-73
2022/05/26 08:35:20;;;;;;;4.80;1.70;;;;;;;36.57;22.15;100326.02;84848;1322;22893;-73
2022/05/26 08:41:24;;;;;;;2.60;1.30;;;;;;;36.66;21.87;100322.73;84803;1321;22598;-74
2022/05/26 08:43:37;;;;;;;2.00;1.30;;;;;;;36.68;21.50;100322.34;84800;1322;22576;-74
2022/05/26 08:45:48;;;;;;;2.50;1.00;;;;;;;36.74;21.51;100328.40;84808;1327;22580;-73
2022/05/26 08:47:56;;;;;;;3.70;1.00;;;;;;;36.69;21.87;100326.56;84827;1329;22666;-75
2022/05/26 08:50:08;;;;;;;5.00;1.50;;;;;;;36.57;21.57;100323.29;84813;1327;22623;-76
2022/05/26 08:52:19;;;;;;;3.10;1.10;;;;;;;36.33;21.67;100322.61;84828;1329;22581;-75
2022/05/26 08:54:31;;;;;;;2.30;1.10;;;;;;;35.95;22.02;100329.73;84820;1323;22652;-75
2022/05/26 08:56:38;;;;;;;1.80;1.00;;;;;;;35.59;22.33;100326.95;84810;1327;22593;-77
2022/05/26 08:58:50;;;;;;;3.50;1.00;;;;;;;35.35;22.07;100322.79;84819;1329;25483;-75
2022/05/26 09:00:57;;;;;;;4.60;1.20;;;;;;;34.97;21.59;100326.05;84825;1327;22593;-74
2022/05/26 09:03:12;;;;;;;2.20;1.30;;;;;;;34.48;22.76;100327.17;84801;1328;22677;-73
2022/05/26 09:05:20;;;;;;;4.20;1.30;;;;;;;34.16;23.19;100327.93;84795;1328;22593;-73
2022/05/26 09:14:54;;;;;;;1.80;0.90;;;;;;;33.73;23.83;100322.61;84784;1322;22647;-73
2022/05/26 09:17:03;;;;;;;4.50;1.10;;;;;;;33.77;23.47;100322.73;84830;1327;22589;-73
2022/05/26 09:19:15;;;;;;;4.30;1.10;;;;;;;33.54;24.05;100317.78;84824;1329;22600;-73
2022/05/26 09:21:31;;;;;;;2.40;0.90;;;;;;;33.07;23.87;100317.53;84804;1328;25425;-74
2022/05/26 09:23:42;;;;;;;3.30;0.90;;;;;;;32.72;23.80;100316.95;84831;1322;22588;-73
2022/05/26 09:25:52;;;;;;;2.50;0.70;;;;;;;32.31;24.13;100313.80;84828;1325;24207;-74
2022/05/26 09:28:01;;;;;;;4.60;0.70;;;;;;;32.06;24.78;100315.25;84823;1325;25361;-74
2022/05/26 09:30:22;;;;;;;7.10;0.70;;;;;;;31.94;25.06;100317.99;84832;1321;22623;-74
2022/05/26 09:32:36;;;;;;;2.70;0.70;;;;;;;31.89;24.80;100317.46;84814;1325;25499;-74
2022/05/26 09:34:43;;;;;;;3.60;0.70;;;;;;;31.89;24.88;100322.55;84796;1325;24207;-73
2022/05/26 09:36:56;;;;;;;7.40;1.00;;;;;;;31.62;25.54;100323.11;84818;1327;22665;-74
2022/05/26 09:39:04;;;;;;;1.90;0.90;;;;;;;31.41;25.13;100319.80;84827;1325;22771;-74
2022/05/26 09:41:16;;;;;;;6.10;1.00;;;;;;;31.18;25.72;100320.55;84827;1325;22586;-74
2022/05/26 09:43:28;;;;;;;3.30;0.90;;;;;;;31.00;25.88;100320.38;84846;1327;22661;-74
2022/05/26 09:45:45;;;;;;;4.30;1.20;;;;;;;30.76;25.75;100318.05;84788;1329;24388;-74
2022/05/26 09:47:54;;;;;;;5.30;1.10;;;;;;;30.74;26.11;100319.30;84824;1329;22613;-74
2022/05/26 09:50:06;;;;;;;3.40;1.00;;;;;;;30.60;26.58;100318.95;84817;1318;22573;-73
2022/05/26 09:52:18;;;;;;;1.60;0.90;;;;;;;30.08;25.50;100320.86;84814;1325;22660;-73
2022/05/26 09:54:29;;;;;;;6.10;1.50;;;;;;;29.54;25.46;100319.09;84812;1327;24182;-73
2022/05/26 09:56:43;;;;;;;4.80;0.90;;;;;;;29.17;25.94;100315.13;84810;1325;22594;-74
2022/05/26 09:58:51;;;;;;;2.30;0.60;;;;;;;28.86;26.14;100314.36;84813;1326;22608;-74
2022/05/26 10:01:00;;;;;;;3.10;0.80;;;;;;;28.49;26.74;100314.66;84816;1323;22973;-74
2022/05/26 10:03:13;;;;;;;1.60;0.90;;;;;;;28.12;27.17;100310.87;84808;1323;25604;-74
2022/05/26 10:05:25;;;;;;;1.20;1.00;;;;;;;27.93;27.67;100312.04;84820;1319;22689;-73
2022/05/26 10:08:00;;;;;;;2.20;0.90;;;;;;;27.85;28.72;100321.10;84820;1328;23984;-73
2022/05/26 10:10:15;;;;;;;4.40;0.90;;;;;;;27.75;27.98;100315.85;84791;1322;22834;-74
2022/05/26 10:12:27;;;;;;;3.60;0.70;;;;;;;27.75;28.39;100314.46;84812;1326;25297;-74
2022/05/26 10:14:51;;;;;;;7.00;0.90;;;;;;;27.73;28.89;100317.80;84833;1325;22598;-73
2022/05/26 10:17:03;;;;;;;2.80;0.70;;;;;;;27.68;28.97;100316.17;84817;1325;23985;-73
2022/05/26 10:19:22;;;;;;;1.60;0.80;;;;;;;27.57;28.82;100317.22;84825;1327;22748;-73
2022/05/26 10:21:46;;;;;;;4.00;0.90;;;;;;;27.40;29.20;100323.38;84814;1326;23939;-73
2022/05/26 10:24:22;;;;;;;10.30;8.50;;;;;;;27.26;29.05;100315.98;84818;1321;22591;-73
2022/05/26 10:26:36;;;;;;;5.50;3.40;;;;;;;27.39;30.50;100316.73;84819;1329;22587;-73
2022/05/26 10:29:05;;;;;;;4.10;1.30;;;;;;;27.38;30.30;100318.08;84826;1327;22588;-73
2022/05/26 10:31:27;;;;;;;2.20;0.90;;;;;;;27.18;30.29;100313.13;84823;1328;22656;-72
2022/05/26 10:33:49;;;;;;;1.70;0.80;;;;;;;27.24;30.28;100307.39;84827;1324;22591;-73
2022/05/26 10:36:08;;;;;;;1.60;0.90;;;;;;;27.31;30.12;100315.05;84832;1329;22586;-73
2022/05/26 10:38:31;;;;;;;2.40;0.90;;;;;;;27.32;30.05;100319.25;84811;1328;22632;-73
2022/05/26 10:40:46;;;;;;;2.10;0.90;;;;;;;27.17;29.68;100316.39;84813;1328;23834;-73
2022/05/26 10:43:03;;;;;;;1.80;1.10;;;;;;;26.95;30.03;100311.22;84822;1329;22709;-73
2022/05/26 10:45:15;;;;;;;2.20;1.10;;;;;;;26.70;30.34;100316.81;84834;1322;22627;-72
2022/05/26 10:47:27;;;;;;;4.90;0.90;;;;;;;26.49;30.39;100322.84;84823;1329;25432;-72
2022/05/26 10:49:39;;;;;;;3.00;1.00;;;;;;;26.28;30.91;100320.35;84832;1323;22581;-72
2022/05/26 10:51:53;;;;;;;4.90;0.90;;;;;;;26.11;30.95;100321.09;84843;1321;22606;-72
2022/05/26 10:54:06;;;;;;;5.40;1.10;;;;;;;25.91;31.34;100322.07;84798;1322;23080;-73